Connexion S'enregistrer

Connexion à votre compte

Identifiant
Mot de passe
Maintenir la connexion active sur ce site

Créer un compte

Pour valider ce formulaire, vous devez remplir tous les champs.
Nom
Identifiant
Mot de passe
Répétez le mot de passe
Adresse e-mail
Répétez l'adresse e-mail

Nous contacter

 Téléphone : +33 (0)4 79 54 41 81

Coordonnées détaillées et accès : cliquez ici

 
LFLB °C
    Ferienhaus Ostsee
[source: ADDS]
METAR
LFLB 131730Z AUTO VRB04KT CAVOK 28/09 Q1017 NOSIG =
TAF LFLB 131100Z 1312/1412 35008KT CAVOK BECMG 1322/1324 VRB02KT BECMG 1408/1410 36005KT
TAF
TAF LFLB 131100Z 1312/1412 35008KT CAVOK BECMG 1322/1324 VRB02KT BECMG 1408/1410 36005KT =
SR / SS: 04:00 / 19:24 UTC (Lever/Coucher du soleil le 2020-07-13)
JSN Boot template designed by JoomlaShine.com